sensor_id;sensor_type;location;lat;lon;timestamp;temperature;humidity
1766;DHT22;880;52.452;8.656;2023-05-10T00:00:55;16.40;99.90
1766;DHT22;880;52.452;8.656;2023-05-10T00:03:22;16.40;99.90
1766;DHT22;880;52.452;8.656;2023-05-10T00:05:49;16.50;99.90
1766;DHT22;880;52.452;8.656;2023-05-10T00:08:16;16.50;99.90
1766;DHT22;880;52.452;8.656;2023-05-10T00:10:43;16.50;99.90
1766;DHT22;880;52.452;8.656;2023-05-10T00:13:10;16.50;99.90
1766;DHT22;880;52.452;8.656;2023-05-10T00:15:37;16.50;99.90
1766;DHT22;880;52.452;8.656;2023-05-10T00:18:04;16.50;99.90
1766;DHT22;880;52.452;8.656;2023-05-10T00:20:31;16.50;99.90
1766;DHT22;880;52.452;8.656;2023-05-10T00:22:58;16.40;99.90
1766;DHT22;880;52.452;8.656;2023-05-10T00:25:25;16.40;99.90
1766;DHT22;880;52.452;8.656;2023-05-10T00:27:52;16.40;99.90
1766;DHT22;880;52.452;8.656;2023-05-10T00:30:21;16.40;99.90
1766;DHT22;880;52.452;8.656;2023-05-10T00:32:48;16.30;99.90
1766;DHT22;880;52.452;8.656;2023-05-10T00:35:16;16.40;99.90
1766;DHT22;880;52.452;8.656;2023-05-10T00:37:43;16.30;99.90
1766;DHT22;880;52.452;8.656;2023-05-10T00:40:10;16.20;99.90
1766;DHT22;880;52.452;8.656;2023-05-10T00:42:39;16.10;99.90
1766;DHT22;880;52.452;8.656;2023-05-10T00:45:06;16.10;99.90
1766;DHT22;880;52.452;8.656;2023-05-10T00:47:34;16.20;99.90
1766;DHT22;880;52.452;8.656;2023-05-10T00:50:02;16.20;99.90
1766;DHT22;880;52.452;8.656;2023-05-10T00:52:29;16.20;99.90
1766;DHT22;880;52.452;8.656;2023-05-10T00:54:57;16.20;99.90
1766;DHT22;880;52.452;8.656;2023-05-10T00:57:24;16.20;99.90
1766;DHT22;880;52.452;8.656;2023-05-10T00:59:52;16.10;99.90
1766;DHT22;880;52.452;8.656;2023-05-10T01:02:19;16.00;99.90
1766;DHT22;880;52.452;8.656;2023-05-10T01:04:46;16.00;99.90
1766;DHT22;880;52.452;8.656;2023-05-10T01:07:13;16.10;99.90
1766;DHT22;880;52.452;8.656;2023-05-10T01:09:40;16.10;99.90
1766;DHT22;880;52.452;8.656;2023-05-10T01:12:07;16.00;99.90
1766;DHT22;880;52.452;8.656;2023-05-10T01:14:35;16.00;99.90
1766;DHT22;880;52.452;8.656;2023-05-10T01:17:04;16.00;99.90
1766;DHT22;880;52.452;8.656;2023-05-10T01:19:34;16.10;99.90
1766;DHT22;880;52.452;8.656;2023-05-10T01:25:36;16.10;99.90
1766;DHT22;880;52.452;8.656;2023-05-10T01:34:53;16.00;99.90
1766;DHT22;880;52.452;8.656;2023-05-10T01:37:49;16.00;99.90
1766;DHT22;880;52.452;8.656;2023-05-10T01:40:43;16.00;99.90
1766;DHT22;880;52.452;8.656;2023-05-10T01:43:21;16.00;99.90
1766;DHT22;880;52.452;8.656;2023-05-10T01:46:05;15.90;99.90
1766;DHT22;880;52.452;8.656;2023-05-10T01:48:40;15.90;99.90
1766;DHT22;880;52.452;8.656;2023-05-10T01:51:18;15.90;99.90
1766;DHT22;880;52.452;8.656;2023-05-10T01:53:48;15.90;99.90
1766;DHT22;880;52.452;8.656;2023-05-10T01:56:16;15.90;99.90
1766;DHT22;880;52.452;8.656;2023-05-10T01:58:48;15.90;99.90
1766;DHT22;880;52.452;8.656;2023-05-10T02:01:17;15.90;99.90
1766;DHT22;880;52.452;8.656;2023-05-10T02:03:46;15.90;99.90
1766;DHT22;880;52.452;8.656;2023-05-10T02:06:14;15.90;99.90
1766;DHT22;880;52.452;8.656;2023-05-10T02:08:43;15.90;99.90
1766;DHT22;880;52.452;8.656;2023-05-10T02:11:13;15.90;99.90
1766;DHT22;880;52.452;8.656;2023-05-10T02:13:42;15.80;99.90
1766;DHT22;880;52.452;8.656;2023-05-10T02:16:11;15.70;99.90
1766;DHT22;880;52.452;8.656;2023-05-10T02:18:40;15.70;99.90
1766;DHT22;880;52.452;8.656;2023-05-10T02:21:08;15.70;99.90
1766;DHT22;880;52.452;8.656;2023-05-10T02:23:38;15.60;99.90
1766;DHT22;880;52.452;8.656;2023-05-10T02:26:06;15.60;99.90
1766;DHT22;880;52.452;8.656;2023-05-10T02:28:35;15.70;99.90
1766;DHT22;880;52.452;8.656;2023-05-10T02:31:05;15.70;99.90
1766;DHT22;880;52.452;8.656;2023-05-10T02:33:33;15.70;99.90
1766;DHT22;880;52.452;8.656;2023-05-10T02:36:02;15.70;99.90
1766;DHT22;880;52.452;8.656;2023-05-10T02:38:31;15.70;99.90
1766;DHT22;880;52.452;8.656;2023-05-10T02:40:59;15.70;99.90
1766;DHT22;880;52.452;8.656;2023-05-10T02:43:28;15.70;99.90
1766;DHT22;880;52.452;8.656;2023-05-10T02:45:55;15.80;99.90
1766;DHT22;880;52.452;8.656;2023-05-10T02:48:22;15.70;99.90
1766;DHT22;880;52.452;8.656;2023-05-10T02:50:51;15.80;99.90
1766;DHT22;880;52.452;8.656;2023-05-10T02:53:23;15.80;99.90
1766;DHT22;880;52.452;8.656;2023-05-10T02:55:59;15.90;99.90
1766;DHT22;880;52.452;8.656;2023-05-10T02:58:30;15.80;99.90
1766;DHT22;880;52.452;8.656;2023-05-10T03:00:59;15.70;99.90
1766;DHT22;880;52.452;8.656;2023-05-10T03:03:26;15.60;99.90
1766;DHT22;880;52.452;8.656;2023-05-10T03:05:53;15.60;99.90
1766;DHT22;880;52.452;8.656;2023-05-10T03:08:23;15.50;99.90
1766;DHT22;880;52.452;8.656;2023-05-10T03:11:06;15.50;99.90
1766;DHT22;880;52.452;8.656;2023-05-10T03:13:49;15.50;99.90
1766;DHT22;880;52.452;8.656;2023-05-10T03:16:44;15.50;99.90
1766;DHT22;880;52.452;8.656;2023-05-10T03:19:22;15.50;99.90
1766;DHT22;880;52.452;8.656;2023-05-10T03:21:53;15.40;99.90
1766;DHT22;880;52.452;8.656;2023-05-10T03:24:30;15.40;99.90
1766;DHT22;880;52.452;8.656;2023-05-10T03:27:00;15.30;99.90
1766;DHT22;880;52.452;8.656;2023-05-10T03:29:31;15.20;99.90
1766;DHT22;880;52.452;8.656;2023-05-10T03:31:58;15.20;99.90
1766;DHT22;880;52.452;8.656;2023-05-10T03:34:30;15.20;99.90
1766;DHT22;880;52.452;8.656;2023-05-10T03:36:58;15.20;99.90
1766;DHT22;880;52.452;8.656;2023-05-10T03:39:27;15.20;99.90
1766;DHT22;880;52.452;8.656;2023-05-10T03:41:57;15.20;99.90
1766;DHT22;880;52.452;8.656;2023-05-10T03:44:24;15.20;99.90
1766;DHT22;880;52.452;8.656;2023-05-10T03:46:51;15.20;99.90
1766;DHT22;880;52.452;8.656;2023-05-10T03:49:18;15.20;99.90
1766;DHT22;880;52.452;8.656;2023-05-10T03:51:46;15.10;99.90
1766;DHT22;880;52.452;8.656;2023-05-10T03:54:13;15.10;99.90
1766;DHT22;880;52.452;8.656;2023-05-10T03:56:40;15.00;99.90
1766;DHT22;880;52.452;8.656;2023-05-10T03:59:07;15.00;99.90
1766;DHT22;880;52.452;8.656;2023-05-10T04:01:35;15.00;99.90
1766;DHT22;880;52.452;8.656;2023-05-10T04:04:02;15.00;99.90
1766;DHT22;880;52.452;8.656;2023-05-10T04:06:30;15.00;99.90
1766;DHT22;880;52.452;8.656;2023-05-10T04:08:58;14.90;99.90
1766;DHT22;880;52.452;8.656;2023-05-10T04:11:26;15.00;99.90
1766;DHT22;880;52.452;8.656;2023-05-10T04:13:54;15.00;99.90
1766;DHT22;880;52.452;8.656;2023-05-10T04:16:21;14.90;99.90
1766;DHT22;880;52.452;8.656;2023-05-10T04:18:48;14.90;99.90
1766;DHT22;880;52.452;8.656;2023-05-10T04:21:15;14.90;99.90
1766;DHT22;880;52.452;8.656;2023-05-10T04:23:42;14.90;99.90
1766;DHT22;880;52.452;8.656;2023-05-10T04:26:09;14.90;99.90
1766;DHT22;880;52.452;8.656;2023-05-10T04:28:36;14.80;99.90
1766;DHT22;880;52.452;8.656;2023-05-10T04:31:09;14.80;99.90
1766;DHT22;880;52.452;8.656;2023-05-10T04:33:36;14.80;99.90
1766;DHT22;880;52.452;8.656;2023-05-10T04:36:04;14.80;99.90
1766;DHT22;880;52.452;8.656;2023-05-10T04:38:31;14.80;99.90
1766;DHT22;880;52.452;8.656;2023-05-10T04:41:08;14.70;99.90
1766;DHT22;880;52.452;8.656;2023-05-10T04:43:37;14.60;99.90
1766;DHT22;880;52.452;8.656;2023-05-10T04:46:04;14.60;99.90
1766;DHT22;880;52.452;8.656;2023-05-10T04:48:32;14.50;99.90
1766;DHT22;880;52.452;8.656;2023-05-10T04:50:59;14.60;99.90
1766;DHT22;880;52.452;8.656;2023-05-10T04:53:26;14.50;99.90
1766;DHT22;880;52.452;8.656;2023-05-10T04:55:53;14.60;99.90
1766;DHT22;880;52.452;8.656;2023-05-10T04:58:20;14.50;99.90
1766;DHT22;880;52.452;8.656;2023-05-10T05:00:47;14.40;99.90
1766;DHT22;880;52.452;8.656;2023-05-10T05:03:14;14.40;99.90
1766;DHT22;880;52.452;8.656;2023-05-10T05:05:41;14.30;99.90
1766;DHT22;880;52.452;8.656;2023-05-10T05:08:08;14.20;99.90
1766;DHT22;880;52.452;8.656;2023-05-10T05:10:35;14.10;99.90
1766;DHT22;880;52.452;8.656;2023-05-10T05:13:02;14.10;99.90
1766;DHT22;880;52.452;8.656;2023-05-10T05:15:29;14.10;99.90
1766;DHT22;880;52.452;8.656;2023-05-10T05:17:57;14.10;99.90
1766;DHT22;880;52.452;8.656;2023-05-10T05:20:24;14.00;99.90
1766;DHT22;880;52.452;8.656;2023-05-10T05:22:51;14.00;99.90
1766;DHT22;880;52.452;8.656;2023-05-10T05:25:18;13.90;99.90
1766;DHT22;880;52.452;8.656;2023-05-10T05:27:45;13.80;99.90
1766;DHT22;880;52.452;8.656;2023-05-10T05:30:12;13.80;99.90
1766;DHT22;880;52.452;8.656;2023-05-10T05:32:39;13.80;99.90
1766;DHT22;880;52.452;8.656;2023-05-10T05:35:06;13.80;99.90
1766;DHT22;880;52.452;8.656;2023-05-10T05:37:33;13.80;99.90
1766;DHT22;880;52.452;8.656;2023-05-10T05:40:01;13.80;99.90
1766;DHT22;880;52.452;8.656;2023-05-10T05:42:29;13.80;99.90
1766;DHT22;880;52.452;8.656;2023-05-10T05:44:57;13.70;99.90
1766;DHT22;880;52.452;8.656;2023-05-10T05:47:24;13.70;99.90
1766;DHT22;880;52.452;8.656;2023-05-10T05:49:51;13.70;99.90
1766;DHT22;880;52.452;8.656;2023-05-10T05:52:18;13.70;99.90
1766;DHT22;880;52.452;8.656;2023-05-10T05:54:45;13.70;99.90
1766;DHT22;880;52.452;8.656;2023-05-10T05:57:13;13.70;99.90
1766;DHT22;880;52.452;8.656;2023-05-10T05:59:40;13.70;99.90
1766;DHT22;880;52.452;8.656;2023-05-10T06:02:10;13.60;99.90
1766;DHT22;880;52.452;8.656;2023-05-10T06:04:37;13.70;99.90
1766;DHT22;880;52.452;8.656;2023-05-10T06:07:04;13.60;99.90
1766;DHT22;880;52.452;8.656;2023-05-10T06:09:31;13.70;99.90
1766;DHT22;880;52.452;8.656;2023-05-10T06:11:58;13.60;99.90
1766;DHT22;880;52.452;8.656;2023-05-10T06:14:25;13.70;99.90
1766;DHT22;880;52.452;8.656;2023-05-10T06:16:53;13.70;99.90
1766;DHT22;880;52.452;8.656;2023-05-10T06:19:19;13.70;99.90
1766;DHT22;880;52.452;8.656;2023-05-10T06:21:46;13.70;99.90
1766;DHT22;880;52.452;8.656;2023-05-10T06:24:13;13.80;99.90
1766;DHT22;880;52.452;8.656;2023-05-10T06:26:40;13.80;99.90
1766;DHT22;880;52.452;8.656;2023-05-10T06:29:07;13.80;99.90
1766;DHT22;880;52.452;8.656;2023-05-10T06:31:34;13.80;99.90
1766;DHT22;880;52.452;8.656;2023-05-10T06:34:08;13.80;99.90
1766;DHT22;880;52.452;8.656;2023-05-10T06:36:35;13.80;99.90
1766;DHT22;880;52.452;8.656;2023-05-10T06:39:02;13.80;99.90
1766;DHT22;880;52.452;8.656;2023-05-10T06:41:29;13.90;99.90
1766;DHT22;880;52.452;8.656;2023-05-10T06:43:56;13.90;99.90
1766;DHT22;880;52.452;8.656;2023-05-10T06:46:23;13.90;99.90
1766;DHT22;880;52.452;8.656;2023-05-10T06:48:50;13.80;99.90
1766;DHT22;880;52.452;8.656;2023-05-10T06:51:17;13.90;99.90
1766;DHT22;880;52.452;8.656;2023-05-10T06:53:44;13.90;99.90
1766;DHT22;880;52.452;8.656;2023-05-10T06:56:11;13.90;99.90
1766;DHT22;880;52.452;8.656;2023-05-10T06:58:38;14.00;99.90
1766;DHT22;880;52.452;8.656;2023-05-10T07:01:05;14.00;99.90
1766;DHT22;880;52.452;8.656;2023-05-10T07:03:32;14.00;99.90
1766;DHT22;880;52.452;8.656;2023-05-10T07:06:03;14.00;99.90
1766;DHT22;880;52.452;8.656;2023-05-10T07:08:31;14.00;99.90
1766;DHT22;880;52.452;8.656;2023-05-10T07:11:03;14.10;99.90
1766;DHT22;880;52.452;8.656;2023-05-10T07:13:31;14.10;99.90
1766;DHT22;880;52.452;8.656;2023-05-10T07:15:59;14.20;99.90
1766;DHT22;880;52.452;8.656;2023-05-10T07:18:27;14.20;99.90
1766;DHT22;880;52.452;8.656;2023-05-10T07:20:54;14.20;99.90
1766;DHT22;880;52.452;8.656;2023-05-10T07:23:21;14.20;99.90
1766;DHT22;880;52.452;8.656;2023-05-10T07:25:49;14.20;99.90
1766;DHT22;880;52.452;8.656;2023-05-10T07:28:19;14.30;99.90
1766;DHT22;880;52.452;8.656;2023-05-10T07:30:46;14.30;99.90
1766;DHT22;880;52.452;8.656;2023-05-10T07:33:14;14.30;99.90
1766;DHT22;880;52.452;8.656;2023-05-10T07:35:42;14.30;99.90
1766;DHT22;880;52.452;8.656;2023-05-10T07:38:09;14.20;99.90
1766;DHT22;880;52.452;8.656;2023-05-10T07:40:38;14.20;99.90
1766;DHT22;880;52.452;8.656;2023-05-10T07:43:05;14.20;99.90
1766;DHT22;880;52.452;8.656;2023-05-10T07:45:33;14.20;99.90
1766;DHT22;880;52.452;8.656;2023-05-10T07:48:00;14.20;99.90
1766;DHT22;880;52.452;8.656;2023-05-10T07:50:27;14.30;99.90
1766;DHT22;880;52.452;8.656;2023-05-10T07:52:54;14.30;99.90
1766;DHT22;880;52.452;8.656;2023-05-10T07:55:21;14.30;99.90
1766;DHT22;880;52.452;8.656;2023-05-10T07:57:48;14.40;99.90
1766;DHT22;880;52.452;8.656;2023-05-10T08:00:19;14.50;99.90
1766;DHT22;880;52.452;8.656;2023-05-10T08:02:47;14.60;99.90
1766;DHT22;880;52.452;8.656;2023-05-10T08:05:14;14.70;99.90
1766;DHT22;880;52.452;8.656;2023-05-10T08:07:42;14.80;99.90
1766;DHT22;880;52.452;8.656;2023-05-10T08:10:09;14.80;99.90
1766;DHT22;880;52.452;8.656;2023-05-10T08:12:37;14.90;99.90
1766;DHT22;880;52.452;8.656;2023-05-10T08:15:05;14.90;99.90
1766;DHT22;880;52.452;8.656;2023-05-10T08:17:33;14.90;99.90
1766;DHT22;880;52.452;8.656;2023-05-10T08:20:00;15.00;99.90
1766;DHT22;880;52.452;8.656;2023-05-10T08:22:27;15.10;99.90
1766;DHT22;880;52.452;8.656;2023-05-10T08:24:54;15.10;99.90
1766;DHT22;880;52.452;8.656;2023-05-10T08:27:21;15.00;99.90
1766;DHT22;880;52.452;8.656;2023-05-10T08:29:48;15.00;99.90
1766;DHT22;880;52.452;8.656;2023-05-10T08:32:17;14.90;99.90
1766;DHT22;880;52.452;8.656;2023-05-10T08:34:44;14.90;99.90
1766;DHT22;880;52.452;8.656;2023-05-10T08:37:11;14.90;99.90
1766;DHT22;880;52.452;8.656;2023-05-10T08:39:40;14.90;99.90
1766;DHT22;880;52.452;8.656;2023-05-10T08:42:07;14.90;99.90
1766;DHT22;880;52.452;8.656;2023-05-10T08:44:36;14.90;99.90
1766;DHT22;880;52.452;8.656;2023-05-10T08:47:07;14.90;99.90
1766;DHT22;880;52.452;8.656;2023-05-10T08:49:37;15.00;99.90
1766;DHT22;880;52.452;8.656;2023-05-10T08:52:05;15.10;99.90
1766;DHT22;880;52.452;8.656;2023-05-10T08:54:33;15.20;99.90
1766;DHT22;880;52.452;8.656;2023-05-10T08:57:01;15.20;99.90
1766;DHT22;880;52.452;8.656;2023-05-10T08:59:28;15.10;99.90
1766;DHT22;880;52.452;8.656;2023-05-10T09:01:59;15.00;99.90
1766;DHT22;880;52.452;8.656;2023-05-10T09:04:27;15.00;99.90
1766;DHT22;880;52.452;8.656;2023-05-10T09:06:55;15.10;99.90
1766;DHT22;880;52.452;8.656;2023-05-10T09:09:22;15.30;99.90
1766;DHT22;880;52.452;8.656;2023-05-10T09:11:51;15.50;99.90
1766;DHT22;880;52.452;8.656;2023-05-10T09:14:20;15.70;99.90
1766;DHT22;880;52.452;8.656;2023-05-10T09:16:47;15.90;99.90
1766;DHT22;880;52.452;8.656;2023-05-10T09:19:14;16.00;99.90
1766;DHT22;880;52.452;8.656;2023-05-10T09:21:42;16.10;99.90
1766;DHT22;880;52.452;8.656;2023-05-10T09:24:09;16.10;99.90
1766;DHT22;880;52.452;8.656;2023-05-10T09:26:45;16.10;99.90
1766;DHT22;880;52.452;8.656;2023-05-10T09:29:16;16.20;99.90
1766;DHT22;880;52.452;8.656;2023-05-10T09:31:49;16.10;99.90
1766;DHT22;880;52.452;8.656;2023-05-10T09:34:31;16.00;99.90
1766;DHT22;880;52.452;8.656;2023-05-10T09:37:00;16.00;99.90
1766;DHT22;880;52.452;8.656;2023-05-10T09:39:38;16.10;99.90
1766;DHT22;880;52.452;8.656;2023-05-10T09:42:07;16.20;99.90
1766;DHT22;880;52.452;8.656;2023-05-10T09:44:35;16.30;99.90
1766;DHT22;880;52.452;8.656;2023-05-10T09:47:03;16.40;99.90
1766;DHT22;880;52.452;8.656;2023-05-10T09:49:31;16.30;99.90
1766;DHT22;880;52.452;8.656;2023-05-10T09:52:06;16.30;99.90
1766;DHT22;880;52.452;8.656;2023-05-10T09:54:34;16.40;99.90
1766;DHT22;880;52.452;8.656;2023-05-10T09:57:01;16.50;99.90
1766;DHT22;880;52.452;8.656;2023-05-10T09:59:29;16.40;99.90
1766;DHT22;880;52.452;8.656;2023-05-10T10:01:57;16.40;99.90
1766;DHT22;880;52.452;8.656;2023-05-10T10:04:25;16.30;99.90
1766;DHT22;880;52.452;8.656;2023-05-10T10:09:31;16.80;99.90
1766;DHT22;880;52.452;8.656;2023-05-10T10:12:03;16.90;99.90
1766;DHT22;880;52.452;8.656;2023-05-10T10:14:31;17.10;99.90
1766;DHT22;880;52.452;8.656;2023-05-10T10:17:00;17.10;99.90
1766;DHT22;880;52.452;8.656;2023-05-10T10:19:30;17.10;99.90
1766;DHT22;880;52.452;8.656;2023-05-10T10:21:59;17.00;99.90
1766;DHT22;880;52.452;8.656;2023-05-10T10:24:26;16.80;99.90
1766;DHT22;880;52.452;8.656;2023-05-10T10:26:59;16.70;99.90
1766;DHT22;880;52.452;8.656;2023-05-10T10:32:07;16.70;99.90
1766;DHT22;880;52.452;8.656;2023-05-10T10:34:38;16.70;99.90
1766;DHT22;880;52.452;8.656;2023-05-10T10:37:06;16.70;99.90
1766;DHT22;880;52.452;8.656;2023-05-10T10:39:33;16.70;99.90
1766;DHT22;880;52.452;8.656;2023-05-10T10:42:04;16.60;99.90
1766;DHT22;880;52.452;8.656;2023-05-10T10:44:36;16.80;99.90
1766;DHT22;880;52.452;8.656;2023-05-10T10:52:27;16.70;99.90
1766;DHT22;880;52.452;8.656;2023-05-10T10:55:14;16.90;99.90
1766;DHT22;880;52.452;8.656;2023-05-10T10:57:53;17.20;99.90
1766;DHT22;880;52.452;8.656;2023-05-10T11:00:31;17.60;99.90
1766;DHT22;880;52.452;8.656;2023-05-10T11:03:10;18.00;99.90
1766;DHT22;880;52.452;8.656;2023-05-10T11:05:46;18.50;99.90
1766;DHT22;880;52.452;8.656;2023-05-10T11:08:26;18.30;99.90
1766;DHT22;880;52.452;8.656;2023-05-10T11:11:05;18.20;99.90
1766;DHT22;880;52.452;8.656;2023-05-10T11:13:42;18.20;99.90
1766;DHT22;880;52.452;8.656;2023-05-10T11:16:22;18.00;99.90
1766;DHT22;880;52.452;8.656;2023-05-10T11:19:03;17.90;99.90
1766;DHT22;880;52.452;8.656;2023-05-10T11:21:32;17.70;99.90
1766;DHT22;880;52.452;8.656;2023-05-10T11:24:00;17.60;99.90
1766;DHT22;880;52.452;8.656;2023-05-10T11:26:34;17.60;99.90
1766;DHT22;880;52.452;8.656;2023-05-10T11:29:02;17.70;99.90
1766;DHT22;880;52.452;8.656;2023-05-10T11:31:31;18.00;99.90
1766;DHT22;880;52.452;8.656;2023-05-10T11:33:59;18.10;99.90
1766;DHT22;880;52.452;8.656;2023-05-10T11:36:33;18.10;99.90
1766;DHT22;880;52.452;8.656;2023-05-10T11:39:02;18.00;99.90
1766;DHT22;880;52.452;8.656;2023-05-10T11:41:30;17.90;99.90
1766;DHT22;880;52.452;8.656;2023-05-10T11:43:58;18.00;99.90
1766;DHT22;880;52.452;8.656;2023-05-10T11:46:27;18.20;99.90
1766;DHT22;880;52.452;8.656;2023-05-10T11:49:00;18.30;99.90
1766;DHT22;880;52.452;8.656;2023-05-10T11:51:28;18.40;99.90
1766;DHT22;880;52.452;8.656;2023-05-10T11:53:56;18.50;99.90
1766;DHT22;880;52.452;8.656;2023-05-10T11:56:24;18.50;99.90
1766;DHT22;880;52.452;8.656;2023-05-10T11:58:55;18.60;99.90
1766;DHT22;880;52.452;8.656;2023-05-10T12:01:26;18.60;99.90
1766;DHT22;880;52.452;8.656;2023-05-10T12:03:55;18.60;99.90
1766;DHT22;880;52.452;8.656;2023-05-10T12:06:31;18.70;99.90
1766;DHT22;880;52.452;8.656;2023-05-10T12:09:05;18.80;99.90
1766;DHT22;880;52.452;8.656;2023-05-10T12:11:38;18.90;99.90
1766;DHT22;880;52.452;8.656;2023-05-10T12:14:09;19.00;99.90
1766;DHT22;880;52.452;8.656;2023-05-10T12:16:37;19.00;99.90
1766;DHT22;880;52.452;8.656;2023-05-10T12:19:04;19.20;99.90
1766;DHT22;880;52.452;8.656;2023-05-10T12:21:32;19.20;99.90
1766;DHT22;880;52.452;8.656;2023-05-10T12:24:02;19.20;99.90
1766;DHT22;880;52.452;8.656;2023-05-10T12:26:30;19.30;99.90
1766;DHT22;880;52.452;8.656;2023-05-10T12:29:17;19.60;99.90
1766;DHT22;880;52.452;8.656;2023-05-10T12:31:56;19.70;99.90
1766;DHT22;880;52.452;8.656;2023-05-10T12:34:32;19.70;99.90
1766;DHT22;880;52.452;8.656;2023-05-10T12:37:00;19.70;99.90
1766;DHT22;880;52.452;8.656;2023-05-10T12:39:43;19.50;99.90
1766;DHT22;880;52.452;8.656;2023-05-10T12:42:10;19.40;99.90
1766;DHT22;880;52.452;8.656;2023-05-10T12:44:38;19.30;99.90
1766;DHT22;880;52.452;8.656;2023-05-10T12:47:06;19.20;99.90
1766;DHT22;880;52.452;8.656;2023-05-10T12:49:33;18.90;99.90
1766;DHT22;880;52.452;8.656;2023-05-10T12:52:00;18.90;99.90
1766;DHT22;880;52.452;8.656;2023-05-10T12:54:27;18.90;99.90
1766;DHT22;880;52.452;8.656;2023-05-10T12:56:54;19.00;99.90
1766;DHT22;880;52.452;8.656;2023-05-10T12:59:21;19.20;99.90
1766;DHT22;880;52.452;8.656;2023-05-10T13:01:49;19.40;99.90
1766;DHT22;880;52.452;8.656;2023-05-10T13:04:16;19.40;99.90
1766;DHT22;880;52.452;8.656;2023-05-10T13:06:43;19.30;99.90
1766;DHT22;880;52.452;8.656;2023-05-10T13:09:10;19.10;99.90
1766;DHT22;880;52.452;8.656;2023-05-10T13:11:37;18.90;99.90
1766;DHT22;880;52.452;8.656;2023-05-10T13:14:04;18.70;99.90
1766;DHT22;880;52.452;8.656;2023-05-10T13:16:31;18.60;99.90
1766;DHT22;880;52.452;8.656;2023-05-10T13:18:58;18.70;99.90
1766;DHT22;880;52.452;8.656;2023-05-10T13:21:25;18.90;99.90
1766;DHT22;880;52.452;8.656;2023-05-10T13:23:53;19.10;99.90
1766;DHT22;880;52.452;8.656;2023-05-10T13:26:20;19.50;99.90
1766;DHT22;880;52.452;8.656;2023-05-10T13:28:47;19.60;99.90
1766;DHT22;880;52.452;8.656;2023-05-10T13:31:16;19.80;99.90
1766;DHT22;880;52.452;8.656;2023-05-10T13:33:43;19.90;99.90
1766;DHT22;880;52.452;8.656;2023-05-10T13:36:10;20.20;99.90
1766;DHT22;880;52.452;8.656;2023-05-10T13:38:37;20.20;99.90
1766;DHT22;880;52.452;8.656;2023-05-10T13:41:04;20.30;99.90
1766;DHT22;880;52.452;8.656;2023-05-10T13:43:31;20.10;99.90
1766;DHT22;880;52.452;8.656;2023-05-10T13:45:58;20.10;99.90
1766;DHT22;880;52.452;8.656;2023-05-10T13:48:25;20.00;99.90
1766;DHT22;880;52.452;8.656;2023-05-10T13:50:52;19.90;99.90
1766;DHT22;880;52.452;8.656;2023-05-10T13:53:19;19.90;99.90
1766;DHT22;880;52.452;8.656;2023-05-10T13:55:46;20.00;99.90
1766;DHT22;880;52.452;8.656;2023-05-10T13:58:13;19.90;99.90
1766;DHT22;880;52.452;8.656;2023-05-10T14:00:40;20.00;99.90
1766;DHT22;880;52.452;8.656;2023-05-10T14:03:07;20.20;99.90
1766;DHT22;880;52.452;8.656;2023-05-10T14:05:38;20.10;99.90
1766;DHT22;880;52.452;8.656;2023-05-10T14:08:05;20.00;99.90
1766;DHT22;880;52.452;8.656;2023-05-10T14:10:32;20.00;99.90
1766;DHT22;880;52.452;8.656;2023-05-10T14:12:58;20.20;99.90
1766;DHT22;880;52.452;8.656;2023-05-10T14:15:26;20.30;99.90
1766;DHT22;880;52.452;8.656;2023-05-10T14:17:52;20.30;99.90
1766;DHT22;880;52.452;8.656;2023-05-10T14:20:20;20.10;99.90
1766;DHT22;880;52.452;8.656;2023-05-10T14:22:47;20.00;99.90
1766;DHT22;880;52.452;8.656;2023-05-10T14:25:14;20.20;99.90
1766;DHT22;880;52.452;8.656;2023-05-10T14:27:41;20.40;99.90
1766;DHT22;880;52.452;8.656;2023-05-10T14:30:09;20.80;99.90
1766;DHT22;880;52.452;8.656;2023-05-10T14:32:36;20.70;99.90
1766;DHT22;880;52.452;8.656;2023-05-10T14:35:04;20.50;99.90
1766;DHT22;880;52.452;8.656;2023-05-10T14:37:32;20.60;99.90
1766;DHT22;880;52.452;8.656;2023-05-10T14:39:59;20.80;99.90
1766;DHT22;880;52.452;8.656;2023-05-10T14:42:26;20.80;99.90
1766;DHT22;880;52.452;8.656;2023-05-10T14:44:53;20.50;99.90
1766;DHT22;880;52.452;8.656;2023-05-10T14:47:20;20.40;99.90
1766;DHT22;880;52.452;8.656;2023-05-10T14:49:47;20.70;99.90
1766;DHT22;880;52.452;8.656;2023-05-10T14:52:14;21.00;99.90
1766;DHT22;880;52.452;8.656;2023-05-10T14:54:41;21.10;99.90
1766;DHT22;880;52.452;8.656;2023-05-10T14:57:08;21.30;99.90
1766;DHT22;880;52.452;8.656;2023-05-10T14:59:35;21.40;99.90
1766;DHT22;880;52.452;8.656;2023-05-10T15:02:02;21.40;99.90
1766;DHT22;880;52.452;8.656;2023-05-10T15:04:31;21.50;99.90
1766;DHT22;880;52.452;8.656;2023-05-10T15:06:58;21.30;99.90
1766;DHT22;880;52.452;8.656;2023-05-10T15:09:26;21.10;99.90
1766;DHT22;880;52.452;8.656;2023-05-10T15:11:54;21.10;99.90
1766;DHT22;880;52.452;8.656;2023-05-10T15:14:22;21.10;99.90
1766;DHT22;880;52.452;8.656;2023-05-10T15:16:49;21.30;99.90
1766;DHT22;880;52.452;8.656;2023-05-10T15:19:16;21.50;99.90
1766;DHT22;880;52.452;8.656;2023-05-10T15:21:43;21.80;99.90
1766;DHT22;880;52.452;8.656;2023-05-10T15:24:11;22.10;99.90
1766;DHT22;880;52.452;8.656;2023-05-10T15:26:38;22.20;99.90
1766;DHT22;880;52.452;8.656;2023-05-10T15:29:05;22.30;99.90
1766;DHT22;880;52.452;8.656;2023-05-10T15:31:32;22.30;99.90
1766;DHT22;880;52.452;8.656;2023-05-10T15:34:02;22.10;99.90
1766;DHT22;880;52.452;8.656;2023-05-10T15:36:29;22.00;99.90
1766;DHT22;880;52.452;8.656;2023-05-10T15:38:58;22.00;99.90
1766;DHT22;880;52.452;8.656;2023-05-10T15:41:25;21.70;99.90
1766;DHT22;880;52.452;8.656;2023-05-10T15:43:53;21.40;99.90
1766;DHT22;880;52.452;8.656;2023-05-10T15:46:20;21.10;99.90
1766;DHT22;880;52.452;8.656;2023-05-10T15:48:47;20.80;99.90
1766;DHT22;880;52.452;8.656;2023-05-10T15:51:14;20.80;99.90
1766;DHT22;880;52.452;8.656;2023-05-10T15:53:41;20.80;99.90
1766;DHT22;880;52.452;8.656;2023-05-10T15:56:26;20.60;99.90
1766;DHT22;880;52.452;8.656;2023-05-10T15:58:53;20.40;99.90
1766;DHT22;880;52.452;8.656;2023-05-10T16:01:20;20.30;99.90
1766;DHT22;880;52.452;8.656;2023-05-10T16:03:47;20.30;99.90
1766;DHT22;880;52.452;8.656;2023-05-10T16:06:14;20.40;99.90
1766;DHT22;880;52.452;8.656;2023-05-10T16:08:41;20.30;99.90
1766;DHT22;880;52.452;8.656;2023-05-10T16:11:08;20.30;99.90
1766;DHT22;880;52.452;8.656;2023-05-10T16:13:35;20.40;99.90
1766;DHT22;880;52.452;8.656;2023-05-10T16:16:02;20.50;99.90
1766;DHT22;880;52.452;8.656;2023-05-10T16:18:29;20.50;99.90
1766;DHT22;880;52.452;8.656;2023-05-10T16:20:58;20.40;99.90
1766;DHT22;880;52.452;8.656;2023-05-10T16:23:25;20.30;99.90
1766;DHT22;880;52.452;8.656;2023-05-10T16:25:52;20.20;99.90
1766;DHT22;880;52.452;8.656;2023-05-10T16:28:19;20.10;99.90
1766;DHT22;880;52.452;8.656;2023-05-10T16:30:47;20.10;99.90
1766;DHT22;880;52.452;8.656;2023-05-10T16:33:14;19.90;99.90
1766;DHT22;880;52.452;8.656;2023-05-10T16:35:41;20.00;99.90
1766;DHT22;880;52.452;8.656;2023-05-10T16:38:09;20.10;99.90
1766;DHT22;880;52.452;8.656;2023-05-10T16:40:36;20.20;99.90
1766;DHT22;880;52.452;8.656;2023-05-10T16:43:03;20.30;99.90
1766;DHT22;880;52.452;8.656;2023-05-10T16:45:31;20.30;99.90
1766;DHT22;880;52.452;8.656;2023-05-10T16:47:58;20.20;99.90